Terminal Aerodrome Forecast
Issued by NWS

Home | Current Version | Previous Version | Text Only | Print | Product List | Glossary On
Versions: 1 2 3 4 5 6 7 8 9 10 11 12 13 14 15 16 17 18 19 20 21 22 23
196
FTUS41 KOKX 091732
TAFHPN
TAF
KHPN 091732Z 0918/1018 03005KT P6SM FEW020 SCT050
     FM092100 VRB04KT P6SM OVC020
     FM100400 VRB04KT 1SM -SN BR BKN006 OVC010
      TEMPO 1008/1012 1/2SM SN OVC005
     FM101400 30008KT P6SM SCT010 BKN025
     FM101700 29011G19KT P6SM BKN040
      AMD NOT SKED=

USA.gov is the U.S. government's official web portal to all federal, state and local government web resources and services.